Timeline UpdatesTrip UpdatesNews PostsPvt PostsTravel TipsAdmin PostsConv PostsFollowed PostsChat RequestsBlog PostsPNR Posts

Disclaimer
Search
 
 
Sat Apr 19, 2014 04:51:58 ISTHomeTrainsΣChainsAtlasPNRForumGalleryNewsFAQTripsMembersLoginFeedback
No Recent News for this Train
Other Trains in the News **new
Latest...
.
Sun Sep 02, 2012 (03:07PM)
⇐ Return Journey: Train# 11025

11026/Pune - Bhusaval Express (Via Panvel)

Mar 14 2014 (2:06AM)
Change Departure Station:
Change Arrival Station:
Post a Train Travel TipPost a Train Travel Tip **new
Post a Comment/Question/Picture/VideoPost a Comment/Question/Picture/Video
Inaugural Run
Sun Jul 01, 2012
Pantry/Catering
✕ NO Pantry Car
✓ Catering Avbl
RSA - Rake Sharing
12157/12158 Hutatma Express
Rake/Coach Composition
Loco-SLR-UR-C1-D1-D2-D3-D4-D5-D6-D7-UR-UR-UR-UR-UR-SLR
Loco
KYN WCAM-2P/3
News    PNR    Forum    Time-Table    Availability    Fare Chart    Map    Arr/Dep History    Trips    Gallery    ΣChains    X/O    Timeline    
Travel Time: 6h 20m    10 halts    Distance: 297 km    Avg Speed: 46 km/hr
Type: Mail/Express
Zone: CR/Central
Departs @ 12:45 (Avg 12m late)
Platform# 2
SMTWTFS
Lonavala/LNL 
Arrives @ 19:05 (Avg 20m late)
Platform# 2
SMTWTFS
Manmad Junction/MMR 

10 halts. 47 intermediate Stations between Lonavala and Manmad Junction

Hide intermediate Stations  Show Old Time-Table

#CodeStation NameX/OArrivesAvgDepartsAvgHaltPFDay#KmSpeedElevZoneAddress
1PUNEPune Junction (6)  -11:45+121-63.658556mCRPune 411001, Maharashtra
1.1SVJRShivajinagar (2)  11:48-11:48-  1-61.2 58549mCRPune 411005, Maharashtra
1.2KKKhadki (3)X  11:51-11:51-  1-57.6 58562mCRPune 411003, Maharashtra
1.3DAPDDapodi (2)  11:53-11:53-  1-55.5 58558mCRPune 411012, Maharashtra
1.4KSWDKasarwadi (2)  11:57-11:57-  1-52.2 58558mCRPune 411034, Maharashtra
1.5PMPPimpri (2)X  12:00-12:00-  1-49.5 58570mCRPune 411018, Maharashtra
2CCHChinchwad (4)  12:02+712:04+62m21-47.373573mCRPune 411033, Maharashtra
2.1AKRDAkurdi (2)X  12:07-12:07-  1-44.1 73583mCRPune 411035, Maharashtra
2.2DEHRDehu Road (4)  12:11-12:11-  1-39.2 73611mCRDehu 412101, Maharashtra
2.3BGWBegdewadi (2)  12:14-12:14-  1-35.7 73594mCRBegdewadi, Maharashtra
2.4BGWIBegdaewadi  12:14-12:14-  1-35.6 73594mCRTalegaon, Maharashtra
2.5SLRWShelarwadi (2)  12:14-12:14-  1-35.3 73594mCRShelarwadi Dist. Pune, Maharashtra
2.6GRWDGhorawadi (2)  12:16-12:16-  1-32.6 73596mCRGhorawadi, Maharashtra
2.7TGNTalegaon (2)O  12:19-12:19-  1-29.5 73619mCRTalegaon Dabhade 410501, Maharashtra
2.8VDNVadgaon (2)  12:22-12:22-  1-25.5 73623mCRVadgaon, Maharashtra
2.9KNHEKanhe (2)  12:26-12:26-  1-20.5 73626mCRKanhe, Maharashtra
2.10KMSTKamshet (2)  12:30-12:30-  1-15.9 73607mCRDist. Pune 410405, Maharashtra
2.11MVLMalavli (2)  12:37-12:37-  1-7.1 73616mCRMalavli 410405, Maharashtra
3LNL»Lonavala (3)»  12:43+1112:45+122m210.056623mCRLonavala 410401, Maharashtra
4KADKhandala (3)T12:49+3412:50+331m313.733545mCR410301, Maharashtra
4.1MHLCMonkey Hill (2)  13:00-13:00-  19.0 33414mCRKhandala, Maharashtra
4.2NAGCNagargali  13:07-13:07-  112.7 33354mCRKhopoli, Maharashtra
4.3NNCNNagnath Cabin (1)  13:12-13:12-  115.9 33289mCRDolavali Khopoli (Chinchavali Marge), Maharashtra
4.4TKWThakurvadi  13:13-13:13-  116.2 33281mCRKhandala, Maharashtra
4.5PDIPalasdhari (4)X  13:31-13:31-  125.7 3367mCRDist Raigad, Maharashtra
5KJTKarjat Junction (4)  13:36+1113:37+131m3128.74757mCRKarjat, Maharashtra
6CHOKChowk  13:51+1413:52+151m1139.75144mCRChowk, Maharashtra
7MHPEMohape  14:01+1914:02+191m1147.35035mCRMohape Railway Station, Maharashtra
8CKHSChikhale (1)  14:09+2114:10+211m1153.24913mCRKolkhe, Maharashtra
9PNVLPanvel Junction (7)  14:15+2114:20+215m7157.23710mCRPanvel, Maharashtra
9.1KLMCKalamboli (3)  14:28-14:28-  162.3 374mCRNavi Mumbai., Maharashtra
9.2KLMGKalamboli Goods (2)  14:29-14:29-  162.9 374mCRNavi Mumbai, Maharashtra
9.3NVRDNavade Road (2)  14:32-14:32-  164.7 376mCRGhotkamp Koyana vele., Maharashtra
9.4TPNDTaloje Panchnand (3)  14:37-14:37-  168.1 3710mCRNavi Mumbai, Maharashtra
9.5NIIJNilaje (3)  14:51-14:51-  176.7 379mCRNilaje, Maharashtra
9.6DTVLDativli (2)  14:58-14:58-  180.9 377mCRKalyan Shilphata Rd, Maharashtra
9.7DIDombivli (5)X  15:07-15:07-  186.4 3711mCRDombivli, Maharashtra
9.8THKThakurli (2)  15:09-15:09-  187.9 3714mCRThakurli, Maharashtra
10KYNKalyan Junction (8)X  15:15+2015:20+225m4191.44310mCRKalyan 421301, Maharashtra
10.1SHADShahad (2)  15:25-15:25-  194.7 4312mCRUlhasnagar, Maharashtra
10.2ABYAmbivli (2)  15:29-15:29-  197.7 4322mCRAmbivli, Maharashtra
10.3TLATitwala (3)  15:36-15:36-  1102.5 4317mCRTitwala, Maharashtra
10.4KDVKhadavli (3)  15:46-15:46-  1110.1 4323mCRKhadavli, Maharashtra
10.5VSDVasind (2)X  15:57-15:57-  1117.7 4332mCRVasind, Maharashtra
10.6ASOAsangaon (3)  16:05-16:05-  1123.6 4377mCRDist. Thane, Maharashtra
10.7ATGAtgaon (2)  16:19-16:19-  1133.4 43147mCRAtgaon, Maharashtra
10.8THSThansitO  16:27-16:27-  1139.3 43184mCRNational Highway 3, Maharashtra
10.9KEKhardi (2)X  16:36-16:36-  1145.5 43232mCRKhardi, Maharashtra
10.10OMBOombermaliX  16:45-16:45-  1152.1 43248mCROombermali, Maharashtra
10.11KSRAKasara (4)X  16:55-16:55-  1158.9 43290mCRDist. Thane 421602, Maharashtra
10.12TGR3Block & Catch Siding Cabin 3O  17:00-17:00-  1162.6 43365mCRNH-3, Maharashtra
10.13TGR2Block & Catch Siding Cabin 2X  17:05-17:05-  1166.1 43473mCRNational Highway 3, Maharashtra
11IGPIgatpuri (4)  17:15+917:20+125m21173.271589mCRIgatpuri 422403, Maharashtra
11.1GOGhoti (2)  17:27-17:27-  1181.4 71581mCRGhoti, Maharashtra
11.2PIPadli (1)X  17:34-17:34-  1189.7 71591mCRNational Highway 3, Maharashtra
11.3AVAsvali (2)X  17:41-17:41-  1198.2 71578mCRAsvali, Maharashtra
11.4LTLahavit (1)X  17:52-17:52-  1210.6 71587mCRWadhiware, Maharashtra
12DVLDevlali (3)X  17:58+1918:00+192m11218.243561mCRDist. Nashik 422401, Maharashtra
13NKNasik Road (3)X  18:08+1918:10+212m11223.979563mCRNashik 422101, Maharashtra
13.1ODHAOdha (2)X  18:19-18:19-  1235.5 79571mCRDist. Nashik, Maharashtra
13.2KWKhervadi (2)X  18:24-18:24-  1242.5 79553mCRKherwadi, Maharashtra
13.3KBSNKasbe Sukene (3)  18:29-18:29-  1249.3 79548mCRKasbe Sukene, Maharashtra
13.4NRNiphad (3)  18:34-18:34-  1255.3 79550mCRNashik, Maharashtra
13.5UGNUgaon (2)  18:39-18:39-  1262.3 79568mCRUgaon, Maharashtra
13.6LSLasalgaon (3)  18:46-18:46-  1272.2 79592mCRLasalgaon, Maharashtra
13.7SUMSummit (2)X  18:56-18:56-  1284.3 79632mCRSummit, Maharashtra
14MMR•Manmad Junction (6)•X  19:05+2019:10+195m21296.794580mCRManmad 423104, Maharashtra
14.1PNVPanevadi (2)  19:14-19:14-  1302.4 94561mCRPanevadi, Maharashtra
14.2HSLHisvahal (2)  19:19-19:19-  1310.1 94540mCRHisvahal, Maharashtra
14.3PJNPanjhan (2)  19:22-19:22-  1315.6 94514mCRPanjhan, Maharashtra
14.4NGNNandgaon (3)X  19:26-19:26-  1322.0 94476mCRNandgaon, Maharashtra
14.5PKEPimpar Khed (2)X  19:33-19:33-  1332.9 94462mCRPimpar Khed, Maharashtra
14.6NINaydongri (2)X  19:39-19:39-  1342.7 94427mCRNaydongri, Maharashtra
14.7RHNERohini (2)  19:42-19:42-  1347.3 94422mCRRohini, Maharashtra
14.8HPRHirapur (2)X  19:48-19:48-  1356.3 94373mCRHirapur, Maharashtra
15CSNChalisgaon Junction (3)  19:53+2819:55+282m--1364.282352mCRChalisgaon 424101, Maharashtra
15.1VGLVaghli (2)  20:02-20:02-  1373.6 82331mCRVaghli, Maharashtra
15.2KJKajgaon (3)X20:09-20:09-  1383.4 82297mCRKajgaon, Maharashtra
15.3NGDNagardevla (2)X  20:14-20:14-  1390.1 82280mCRNagardevla, Maharashtra
15.4GAAGalan (2)X  20:20-20:20-  1398.5 82282mCRGalan, Maharashtra
16PCPachora Junction (4)X  20:28+2620:30+262m--1409.087264mCRPachora 424201, Maharashtra
16.1PHQPardhande (2)X  20:35-20:35-  1416.5 87243mCRPardhande, Maharashtra
16.2MYJMaheji (2)  20:40-20:40-  1423.8 87247mCRJalgaon, Maharashtra
16.3MWDMhasavad (3)  20:48-20:48-  1435.7 87220mCRMhasavad, Maharashtra
16.4SSShirsoli (2)X  20:55-20:55-  1445.0 87211mCRShirsoli, Maharashtra
17JLJalgaon Junction (4)X  21:03+2521:05+252m31456.732213mCRJalgaon 425001, Maharashtra
17.1TRWTarsodX  21:14-21:14-  1461.5 32206mCRAsoda - Tarsod Road, Maharashtra
17.2BDIBhadli (2)  21:26-21:26-  1468.3 32211mCRBhadli, Maharashtra
18BSLBhusaval Junction (8)  21:50+7-11480.9-208mCRBhusaval 425201, Maharashtra
Scroll to Top
Scroll to Bottom